createdAt,value
2022-10-29T00:00:25.060Z,15.80
2022-10-29T00:04:29.166Z,15.80
2022-10-29T00:08:33.402Z,15.80
2022-10-29T00:12:36.168Z,15.80
2022-10-29T00:16:40.814Z,15.70
2022-10-29T00:20:44.905Z,15.70
2022-10-29T00:24:47.684Z,15.70
2022-10-29T00:28:53.277Z,15.70
2022-10-29T00:32:56.297Z,15.60
2022-10-29T00:37:00.500Z,15.70
2022-10-29T00:41:03.896Z,15.60
2022-10-29T00:45:07.817Z,15.60
2022-10-29T00:49:11.705Z,15.50
2022-10-29T00:53:17.515Z,15.50
2022-10-29T00:57:26.169Z,15.40
2022-10-29T01:01:29.108Z,15.40
2022-10-29T01:05:34.578Z,15.30
2022-10-29T01:09:38.836Z,15.30
2022-10-29T01:13:56.173Z,15.20
2022-10-29T01:18:10.513Z,15.10
2022-10-29T01:22:20.078Z,15.10
2022-10-29T01:27:00.432Z,15.10
2022-10-29T01:31:28.353Z,15.00
2022-10-29T01:35:40.561Z,14.90
2022-10-29T01:39:46.849Z,14.90
2022-10-29T01:43:54.425Z,14.80
2022-10-29T01:48:03.845Z,14.70
2022-10-29T01:52:08.880Z,14.50
2022-10-29T01:56:11.586Z,14.40
2022-10-29T02:00:17.188Z,14.30
2022-10-29T02:04:41.926Z,14.30
2022-10-29T02:08:52.642Z,14.30
2022-10-29T02:12:56.631Z,14.40
2022-10-29T02:17:00.670Z,14.40
2022-10-29T02:21:04.869Z,14.30
2022-10-29T02:25:09.056Z,14.30
2022-10-29T02:29:11.810Z,14.40
2022-10-29T02:33:14.505Z,14.30
2022-10-29T02:37:18.589Z,14.20
2022-10-29T02:41:21.276Z,14.30
2022-10-29T02:45:24.010Z,14.10
2022-10-29T02:49:26.756Z,14.10
2022-10-29T02:53:30.820Z,14.20
2022-10-29T02:57:33.549Z,14.20
2022-10-29T03:01:36.443Z,14.20
2022-10-29T03:05:39.299Z,14.20
2022-10-29T03:09:43.382Z,14.10
2022-10-29T03:13:46.073Z,14.10
2022-10-29T03:17:48.751Z,13.90
2022-10-29T03:21:51.445Z,13.90
2022-10-29T03:25:56.706Z,13.90
2022-10-29T03:29:59.489Z,14.00
2022-10-29T03:34:02.299Z,13.90
2022-10-29T03:38:05.013Z,13.90
2022-10-29T03:42:09.032Z,13.90
2022-10-29T03:46:11.731Z,14.00
2022-10-29T03:50:14.568Z,14.00
2022-10-29T03:54:17.242Z,14.10
2022-10-29T03:58:21.812Z,14.20
2022-10-29T04:02:25.512Z,14.20
2022-10-29T04:06:28.326Z,14.20
2022-10-29T04:10:31.259Z,14.10
2022-10-29T04:14:35.446Z,14.20
2022-10-29T04:18:38.178Z,14.30
2022-10-29T04:31:27.690Z,14.40
2022-10-29T04:35:30.669Z,14.30
2022-10-29T04:39:33.488Z,14.30
2022-10-29T04:43:36.361Z,14.30
2022-10-29T04:47:40.398Z,14.20
2022-10-29T04:51:43.096Z,14.30
2022-10-29T04:55:46.468Z,14.30
2022-10-29T04:59:49.194Z,14.40
2022-10-29T05:03:55.686Z,14.40
2022-10-29T05:08:03.094Z,14.30
2022-10-29T05:12:06.292Z,14.30
2022-10-29T05:16:09.084Z,14.30
2022-10-29T05:20:13.387Z,14.30
2022-10-29T05:24:16.524Z,14.30
2022-10-29T05:28:21.080Z,14.30
2022-10-29T05:32:23.836Z,14.30
2022-10-29T05:36:28.014Z,14.30
2022-10-29T05:40:31.190Z,14.20
2022-10-29T05:44:33.925Z,14.10
2022-10-29T05:48:36.764Z,14.10
2022-10-29T05:52:41.409Z,14.00
2022-10-29T05:56:44.087Z,14.00
2022-10-29T06:00:46.998Z,14.10
2022-10-29T06:04:49.799Z,14.00
2022-10-29T06:08:53.850Z,14.10
2022-10-29T06:12:56.749Z,14.10
2022-10-29T06:16:59.426Z,14.10
2022-10-29T06:21:02.559Z,14.00
2022-10-29T06:25:07.854Z,14.00
2022-10-29T06:29:10.562Z,13.90
2022-10-29T06:33:13.262Z,14.00
2022-10-29T06:37:16.279Z,14.00
2022-10-29T06:41:25.063Z,14.00
2022-10-29T06:45:27.881Z,14.10
2022-10-29T06:49:30.637Z,14.10
2022-10-29T06:53:33.377Z,14.20
2022-10-29T06:57:37.445Z,14.30
2022-10-29T07:01:40.198Z,14.40
2022-10-29T07:05:43.324Z,14.50
2022-10-29T07:09:46.057Z,14.60
2022-10-29T07:13:50.109Z,14.70
2022-10-29T07:17:57.912Z,14.90
2022-10-29T07:22:00.802Z,14.90
2022-10-29T07:26:03.601Z,15.00
2022-10-29T07:30:08.564Z,15.00
2022-10-29T07:34:11.290Z,15.10
2022-10-29T07:38:14.325Z,15.10
2022-10-29T07:42:17.040Z,15.20
2022-10-29T07:46:21.097Z,15.20
2022-10-29T07:50:23.968Z,15.20
2022-10-29T07:54:26.749Z,15.20
2022-10-29T07:58:29.475Z,15.30
2022-10-29T08:02:33.551Z,15.40
2022-10-29T08:06:36.249Z,15.40
2022-10-29T08:10:39.005Z,15.50
2022-10-29T08:14:41.736Z,15.60
2022-10-29T08:18:46.197Z,15.70
2022-10-29T08:22:48.902Z,15.80
2022-10-29T08:26:52.110Z,15.90
2022-10-29T08:30:54.845Z,16.00
2022-10-29T08:34:58.961Z,16.20
2022-10-29T08:39:01.694Z,16.30
2022-10-29T08:43:34.833Z,16.50
2022-10-29T08:47:48.924Z,16.60
2022-10-29T08:51:59.010Z,16.70
2022-10-29T08:56:01.834Z,16.90
2022-10-29T09:04:24.473Z,17.40
2022-10-29T09:08:37.890Z,17.70
2022-10-29T09:12:50.878Z,18.20
2022-10-29T09:16:58.355Z,18.80
2022-10-29T09:21:11.797Z,19.30
2022-10-29T09:25:21.454Z,19.70
2022-10-29T09:29:38.159Z,20.10
2022-10-29T09:33:41.297Z,20.80
2022-10-29T09:37:49.593Z,21.90
2022-10-29T09:41:54.825Z,23.30
2022-10-29T09:46:02.424Z,24.60
2022-10-29T09:50:12.570Z,25.80
2022-10-29T09:54:15.525Z,26.30
2022-10-29T09:58:21.618Z,28.00
2022-10-29T10:02:31.325Z,29.20
2022-10-29T10:07:07.566Z,30.00
2022-10-29T10:11:21.345Z,30.50
2022-10-29T10:15:31.325Z,30.70
2022-10-29T10:19:34.337Z,30.30
2022-10-29T10:23:45.681Z,30.20
2022-10-29T10:27:48.377Z,30.20
2022-10-29T10:32:12.096Z,30.20
2022-10-29T10:36:14.817Z,30.40
2022-10-29T10:40:24.631Z,31.30
2022-10-29T10:44:28.818Z,32.70
2022-10-29T10:52:36.988Z,33.50
2022-10-29T10:56:53.621Z,34.00
2022-10-29T11:01:02.095Z,34.30
2022-10-29T11:05:15.947Z,34.40
2022-10-29T11:09:25.000Z,34.40
2022-10-29T11:13:31.188Z,34.10
2022-10-29T11:17:40.517Z,34.10
2022-10-29T11:21:49.558Z,34.80
2022-10-29T11:25:57.330Z,35.50
2022-10-29T11:30:05.068Z,35.80
2022-10-29T11:34:15.915Z,35.90
2022-10-29T11:38:26.045Z,35.90
2022-10-29T11:42:28.836Z,36.10
2022-10-29T11:46:40.259Z,36.60
2022-10-29T11:50:51.378Z,37.00
2022-10-29T11:55:05.504Z,37.30
2022-10-29T11:59:15.698Z,37.50
2022-10-29T12:03:50.255Z,37.30
2022-10-29T12:08:05.665Z,37.00
2022-10-29T12:12:17.187Z,37.30
2022-10-29T12:16:30.809Z,37.60
2022-10-29T12:20:42.077Z,37.80
2022-10-29T12:24:59.953Z,37.90
2022-10-29T12:29:12.805Z,37.90
2022-10-29T12:33:22.276Z,37.80
2022-10-29T12:37:36.761Z,37.70
2022-10-29T12:41:44.929Z,37.70
2022-10-29T12:50:29.949Z,37.40
2022-10-29T12:54:38.323Z,37.10
2022-10-29T12:58:59.695Z,36.90
2022-10-29T13:03:04.290Z,36.70
2022-10-29T13:07:24.335Z,36.40
2022-10-29T13:11:44.234Z,36.00
2022-10-29T13:15:51.499Z,35.80
2022-10-29T13:19:58.795Z,35.50
2022-10-29T13:24:05.797Z,35.10
2022-10-29T13:28:51.150Z,34.40
2022-10-29T13:32:54.691Z,33.80
2022-10-29T13:37:54.499Z,33.10
2022-10-29T13:41:57.279Z,32.60
2022-10-29T13:46:45.773Z,32.10
2022-10-29T13:50:51.100Z,31.50
2022-10-29T13:54:58.641Z,31.10
2022-10-29T13:59:05.537Z,30.80
2022-10-29T14:03:17.231Z,30.50
2022-10-29T14:07:27.317Z,30.20
2022-10-29T14:11:37.294Z,29.90
2022-10-29T14:15:40.048Z,29.60
2022-10-29T14:19:46.979Z,29.40
2022-10-29T14:24:00.816Z,29.10
2022-10-29T14:28:15.884Z,28.80
2022-10-29T14:32:22.417Z,28.50
2022-10-29T14:36:31.725Z,28.20
2022-10-29T14:40:34.485Z,28.00
2022-10-29T14:44:39.489Z,27.80
2022-10-29T14:48:52.712Z,27.60
2022-10-29T14:52:59.000Z,27.40
2022-10-29T14:57:05.635Z,27.20
2022-10-29T15:01:20.213Z,26.90
2022-10-29T15:05:26.684Z,26.70
2022-10-29T15:09:29.549Z,26.50
2022-10-29T15:13:35.044Z,26.30
2022-10-29T15:17:50.829Z,26.00
2022-10-29T15:21:53.757Z,25.80
2022-10-29T15:26:01.573Z,25.60
2022-10-29T15:30:05.659Z,25.40
2022-10-29T15:34:16.208Z,25.10
2022-10-29T15:39:08.565Z,24.90
2022-10-29T15:43:32.021Z,24.60
2022-10-29T15:47:35.992Z,24.30
2022-10-29T15:51:40.079Z,24.10
2022-10-29T15:55:43.248Z,24.00
2022-10-29T15:59:45.941Z,23.80
2022-10-29T16:03:48.617Z,23.60
2022-10-29T16:07:53.222Z,23.40
2022-10-29T16:11:55.941Z,23.20
2022-10-29T16:15:58.637Z,23.00
2022-10-29T16:20:01.319Z,22.90
2022-10-29T16:24:05.950Z,22.70
2022-10-29T16:28:08.813Z,22.50
2022-10-29T16:32:15.077Z,22.40
2022-10-29T16:36:18.376Z,22.30
2022-10-29T16:40:23.880Z,22.20
2022-10-29T16:44:26.557Z,22.10
2022-10-29T16:48:29.249Z,21.90
2022-10-29T16:52:32.851Z,21.80
2022-10-29T16:56:37.037Z,21.70
2022-10-29T17:00:40.094Z,21.60
2022-10-29T17:04:42.822Z,21.40
2022-10-29T17:08:45.586Z,21.30
2022-10-29T17:12:50.037Z,21.20
2022-10-29T17:16:52.737Z,21.10
2022-10-29T17:20:56.665Z,21.00
2022-10-29T17:24:59.402Z,20.90
2022-10-29T17:29:03.485Z,20.80
2022-10-29T17:33:06.182Z,20.70
2022-10-29T17:37:09.146Z,20.60
2022-10-29T17:41:12.264Z,20.50
2022-10-29T17:45:20.308Z,20.40
2022-10-29T17:49:23.056Z,20.20
2022-10-29T17:53:26.808Z,20.00
2022-10-29T17:57:30.895Z,19.80
2022-10-29T18:01:35.623Z,19.70
2022-10-29T18:05:38.781Z,19.60
2022-10-29T18:09:41.476Z,19.50
2022-10-29T18:13:45.468Z,19.40
2022-10-29T18:17:49.563Z,19.40
2022-10-29T18:21:52.294Z,19.40
2022-10-29T18:26:06.594Z,19.40
2022-10-29T18:30:10.481Z,19.30
2022-10-29T18:34:16.847Z,19.30
2022-10-29T18:38:19.520Z,19.30
2022-10-29T18:42:22.205Z,19.30
2022-10-29T18:46:24.948Z,19.20
2022-10-29T18:50:29.024Z,19.10
2022-10-29T18:54:31.813Z,19.10
2022-10-29T18:58:34.572Z,19.10
2022-10-29T19:02:37.385Z,18.90
2022-10-29T19:06:41.545Z,18.90
2022-10-29T19:10:44.309Z,18.90
2022-10-29T19:14:47.020Z,18.70
2022-10-29T19:18:54.518Z,18.70
2022-10-29T19:22:58.971Z,18.60
2022-10-29T19:27:01.924Z,18.50
2022-10-29T19:31:05.771Z,18.40
2022-10-29T19:35:09.006Z,18.40
2022-10-29T19:39:13.057Z,18.10
2022-10-29T19:43:15.876Z,18.10
2022-10-29T19:47:18.574Z,18.10
2022-10-29T19:51:21.988Z,18.10
2022-10-29T19:55:26.082Z,18.00
2022-10-29T19:59:28.805Z,17.90
2022-10-29T20:03:31.516Z,17.80
2022-10-29T20:07:34.556Z,17.60
2022-10-29T20:11:38.593Z,17.50
2022-10-29T20:15:42.668Z,17.40
2022-10-29T20:19:45.381Z,17.40
2022-10-29T20:23:48.102Z,17.30
2022-10-29T20:27:52.282Z,17.30
2022-10-29T20:31:55.088Z,17.30
2022-10-29T20:35:57.841Z,17.40
2022-10-29T20:40:00.594Z,17.40
2022-10-29T20:44:04.694Z,17.10
2022-10-29T20:48:07.704Z,16.90
2022-10-29T20:52:10.458Z,16.90
2022-10-29T20:56:16.161Z,16.90
2022-10-29T21:00:21.055Z,16.80
2022-10-29T21:04:23.733Z,16.70
2022-10-29T21:12:34.772Z,16.60
2022-10-29T21:16:38.856Z,16.60
2022-10-29T21:20:41.559Z,16.70
2022-10-29T21:24:45.638Z,16.70
2022-10-29T21:28:49.010Z,16.70
2022-10-29T21:32:55.051Z,16.70
2022-10-29T21:36:57.755Z,16.60
2022-10-29T21:41:01.963Z,16.60
2022-10-29T21:45:05.574Z,16.50
2022-10-29T21:49:09.637Z,16.50
2022-10-29T21:53:12.468Z,16.60
2022-10-29T21:57:15.248Z,16.60
2022-10-29T22:01:18.386Z,16.60
2022-10-29T22:05:22.560Z,16.60
2022-10-29T22:09:25.224Z,16.50
2022-10-29T22:13:29.417Z,16.50
2022-10-29T22:17:32.362Z,16.40
2022-10-29T22:21:36.389Z,16.40
2022-10-29T22:25:39.466Z,16.30
2022-10-29T22:29:42.204Z,16.30
2022-10-29T22:33:45.360Z,16.20
2022-10-29T22:37:49.510Z,16.10
2022-10-29T22:41:52.272Z,16.10
2022-10-29T22:45:54.963Z,16.20
2022-10-29T22:49:59.317Z,16.20
2022-10-29T22:54:03.897Z,16.20
2022-10-29T22:58:06.612Z,16.10
2022-10-29T23:02:09.628Z,16.00
2022-10-29T23:06:14.460Z,16.00
2022-10-29T23:10:18.769Z,16.00
2022-10-29T23:14:21.449Z,16.00
2022-10-29T23:18:24.140Z,16.00
2022-10-29T23:22:27.737Z,16.00
2022-10-29T23:26:31.944Z,16.00
2022-10-29T23:30:34.685Z,16.00
2022-10-29T23:34:37.436Z,16.00
2022-10-29T23:38:40.192Z,16.00
2022-10-29T23:42:44.231Z,16.00
2022-10-29T23:46:46.969Z,15.90
2022-10-29T23:50:49.734Z,15.90
2022-10-29T23:54:52.410Z,15.90
2022-10-29T23:58:56.561Z,15.90
